Panther Creek, Texas
Current Conditions -  °F | °C
As of 2:53 PM on Wednesday 26 Nov 2014 (Local Time) from KDWH Reporting Station
Clear Clear  
Wind Chill: 72°   Ceiling: Unl
Heat Index: 72°   Visibility: 10mi
Dew Point: 36°   Wind: 12mph
Humidity: 27%   Direction: 240°WSW
Pressure: 30.17"   Gusts: 22mph
Location:  30.0773°N, 95.5178°W
Report Text: KDWH 262053Z 24010G19KT 10SM CLR 22/02 A3017 RMK AO2 SLP214 T02220022 55015
Loading
Personal Weather Stations






























Interactive Weather Map New forecast layout! Learn more

10-Day Weather Forecast

Advertisements
Track Severe Weather on mobile